Aérodrome :
LOGIN :

S'inscrire | Disclaimer

   EN    FR    IT 

 










Légende :    VFR   VFR Marginal   IFR   IFR Intensif   IFR Très Intensif
Visi : 
Plafond : 
>= 8 km
>= 3000ft
5 à 8 km
1000 à 3000 ft
1500m à 5 km
500 à 1000 ft
800 à 1500m
200 à 500 ft
< 800m
< 200 ft
Symboles :   Orages  Brouillard  Fortes neiges  Fortes précipitations  Vent > 20 kt
SIGMETs :   Divers  Orages  Givrage  Turbulence  Onde Orograph.  Cendres Volcan.






- Altitude de l'aérodrome : 59 ft
- Code IATA : GSE


ESGP - Save AB

DERNIER METAR :
  • 130850Z 05007KT 020V080 CAVOK 20/14 Q1010

METARs EXPIRÉS :
  • 130820Z AUTO 04007KT 9999 FEW180/// 20/14 Q1010
  • 130750Z 04005KT CAVOK 20/14 Q1010
  • 130720Z 04005KT 340V060 CAVOK 19/14 Q1010
  • 130650Z AUTO 04005KT 360V060 9999 FEW200/// 18/14 Q1011
  • 130620Z 03004KT 350V060 CAVOK 17/13 Q1011
  • 130550Z AUTO 04005KT 9999 NCD 16/13 Q1011
  • 130520Z AUTO VRB03KT 9999 NCD 16/12 Q1011
  • 130450Z AUTO 04003KT 350V080 9999 NCD 16/12 Q1011
  • 130420Z AUTO 04003KT 010V080 9999 FEW120/// 15/12 Q1011

TAF TAF ESGP
Valide du 13 à 09h jusqu'au 13 à 17h UTC


130830Z 1309/1317 06008KT CAVOK
TEMPO 1311/1317 SHRA BKN030CB



MET'MAP, la Météo Aéronautique d'un coup d'oeil ! - Copyright ORBIFLY Décembre 2007 - Disclaimer

ORBIFLY MET'MAP TEAM :

Programmation & Développement : Alexandra Zaïnal
Sur une idée originale de : Baudouin d'Aumeries
Soutien technique & logistique : Manuel Goepfert
Assistance : Marc-Olivier Méhu




SOURCES & CREDITS :

   NOAA